Flight Track Log - Related Links

Times and Time Zones

All times are in EST time to prevent confusion due to time zone crossing. See the N749SS flight status page for this flight to view local times or setup timezone preferences in your user account.

Time Position Orientation Groundspeed Altitude Reporting Facility
EST Latitude Longitude Course Direction KTS MPH feet Rate Location/Type
Tue 08:23:54 AM 26.2439 -81.7158 358° North 235 270 6,900  Level Miami Center
Tue 08:24:54 AM 26.3192 -81.7189 358° North 258 297 10,200 2,950 Climbing Miami Center
Tue 08:25:54 AM 26.4108 -81.7206 359° North 302 348 12,800 2,500 Climbing Miami Center
Tue 08:26:54 AM 26.5150 -81.7272 357° North 348 400 15,200 2,400 Climbing Miami Center
Tue 08:27:54 AM 26.6214 -81.7314 358° North 370 426 17,600 1,400 Climbing Miami Center
Tue 08:28:54 AM 26.7528 -81.7347 359° North 400 460 18,000 1,100 Climbing Miami Center
Tue 08:29:54 AM 26.8611 -81.7414 357° North 422 486 19,800 2,100 Climbing Miami Center
Tue 08:30:54 AM 26.9800 -81.7442 359° North 422 486 22,200 2,600 Climbing Miami Center
Tue 08:31:54 AM 27.1086 -81.7706 350° North 422 486 25,000 2,550 Climbing Miami Center
Tue 08:32:54 AM 27.2075 -81.8075 342° North 416 479 27,300 2,200 Climbing Miami Center
Tue 08:33:54 AM 27.3289 -81.7986 North 421 484 29,400 1,850 Climbing Miami Center
Tue 08:34:54 AM 27.4642 -81.7458 19° North 445 512 31,000 800 Climbing Miami Center
Tue 08:35:54 AM 27.5933 -81.6928 20° North 476 548 31,000  Level Miami Center
Tue 08:36:54 AM 27.7172 -81.6067 32° Northeast 499 574 31,000 100 Level Miami Center
Tue 08:37:54 AM 27.8278 -81.5456 26° Northeast 510 587 31,200 1,000 Climbing Miami Center
Tue 08:38:54 AM 27.9594 -81.5369 North 491 565 33,000 1,900 Climbing Miami Center
Tue 08:39:54 AM 28.0889 -81.5328 North 466 536 35,000 2,000 Climbing Miami Center
Tue 08:40:54 AM 28.2161 -81.5358 359° North 461 531 37,000 2,000 Climbing Miami Center
Tue 08:41:54 AM 28.3497 -81.5342 North 455 524 39,000 1,833 Climbing Miami Center
Tue 08:42:42 AM 28.4392 -81.5328 North 443 510 40,300 1,111 Climbing Jacksonville Center
Tue 08:43:42 AM 28.5581 -81.5336 360° North 434 499 41,000 350 Climbing Jacksonville Center
Tue 08:44:42 AM 28.6894 -81.5294 North 434 499 41,000  Level Jacksonville Center
Tue 08:45:42 AM 28.8167 -81.5278 North 439 505 41,000  Level Jacksonville Center
Tue 08:46:42 AM 28.9397 -81.5258 North 439 505 41,000  Level Jacksonville Center
Tue 08:47:42 AM 29.0672 -81.5267 360° North 439 505 41,000  Level Jacksonville Center
Tue 08:48:42 AM 29.1925 -81.5225 North 439 505 41,000  Level Jacksonville Center
Tue 08:49:42 AM 29.3031 -81.5208 North 434 499 41,000  Level Jacksonville Center
Tue 08:50:43 AM 29.4281 -81.5050 North 440 506 41,000  Level Jacksonville Center
Tue 08:51:42 AM 29.5553 -81.4936 North 445 512 41,000  Level Jacksonville Center
Tue 08:52:42 AM 29.6825 -81.4750 North 451 519 41,000  Level Jacksonville Center
Tue 08:53:42 AM 29.8097 -81.4636 North 451 519 41,000  Level Jacksonville Center
Tue 08:54:42 AM 29.9369 -81.4497 North 451 519 41,000  Level Jacksonville Center
Tue 08:55:42 AM 30.0764 -81.4308 North 456 525 41,000  Level Jacksonville Center
Tue 08:56:43 AM 30.2036 -81.4169 North 462 532 41,000  Level Jacksonville Center
Tue 08:57:42 AM 30.3350 -81.3858 12° North 462 532 41,000  Level Jacksonville Center
Tue 08:58:42 AM 30.4597 -81.3600 10° North 462 532 41,000  Level Jacksonville Center
Tue 08:59:42 AM 30.5911 -81.3311 11° North 467 537 41,000  Level Jacksonville Center
Tue 09:00:42 AM 30.7181 -81.3075 North 467 537 41,000  Level Jacksonville Center
Tue 09:01:42 AM 30.8472 -81.2786 11° North 467 537 41,000  Level Jacksonville Center
Tue 09:02:43 AM 30.9806 -81.2522 10° North 467 537 41,000  Level Jacksonville Center
Tue 09:03:42 AM 31.1075 -81.2231 11° North 467 537 41,000  Level Jacksonville Center
Tue 09:04:42 AM 31.2322 -81.1967 10° North 454 522 41,000  Level Jacksonville Center
Tue 09:05:42 AM 31.3528 -81.1531 17° North 449 517 41,000  Level Jacksonville Center
Tue 09:06:42 AM 31.4606 -81.0806 30° Northeast 471 542 41,000  Level Jacksonville Center
Tue 09:07:42 AM 31.5886 -80.9903 31° Northeast 478 550 41,000  Level Jacksonville Center
Tue 09:08:42 AM 31.7042 -80.9072 31° Northeast 490 564 41,000  Level Jacksonville Center
Tue 09:09:42 AM 31.8117 -80.8317 31° Northeast 490 564 41,000  Level Jacksonville Center
Tue 09:10:42 AM 31.9414 -80.7381 31° Northeast 490 564 41,000  Level Jacksonville Center
Tue 09:11:43 AM 32.0569 -80.6522 32° Northeast 490 564 41,000  Level Jacksonville Center
Tue 09:12:42 AM 32.1744 -80.5658 32° Northeast 490 564 41,000  Level Jacksonville Center
Tue 09:13:42 AM 32.2919 -80.4817 31° Northeast 500 575 41,000  Level Jacksonville Center
Tue 09:14:42 AM 32.4111 -80.3950 32° Northeast 494 568 41,000  Level Jacksonville Center
Tue 09:15:42 AM 32.5264 -80.3081 32° Northeast 494 568 41,000  Level Jacksonville Center
Tue 09:16:43 AM 32.6436 -80.2233 31° Northeast 489 563 41,000  Level Jacksonville Center
Tue 09:17:42 AM 32.7544 -80.1383 33° Northeast 489 563 41,000  Level Jacksonville Center
Tue 09:18:42 AM 32.8525 -80.0439 39° Northeast 489 563 41,000  Level Jacksonville Center
Tue 09:19:42 AM 32.9586 -79.9392 40° Northeast 494 568 41,000  Level Jacksonville Center
Tue 09:20:42 AM 33.0689 -79.8364 38° Northeast 499 574 41,000  Level Jacksonville Center
Tue 09:21:42 AM 33.1769 -79.7333 39° Northeast 499 574 41,000  Level Jacksonville Center
Tue 09:22:42 AM 33.2869 -79.6275 39° Northeast 499 574 41,000  Level Jacksonville Center
Tue 09:23:43 AM 33.3950 -79.5242 39° Northeast 499 574 41,000  Level Jacksonville Center
Tue 09:24:42 AM 33.5028 -79.4203 39° Northeast 499 574 41,000  Level Jacksonville Center
Tue 09:25:42 AM 33.6103 -79.3139 39° Northeast 499 574 41,000  Level Jacksonville Center
Tue 09:26:43 AM 33.7200 -79.2097 38° Northeast 499 574 41,000  Level Jacksonville Center
Tue 09:27:42 AM 33.8275 -79.1025 40° Northeast 499 574 41,000  Level Jacksonville Center
Tue 09:28:42 AM 33.9369 -78.9978 38° Northeast 499 574 41,000  Level Jacksonville Center
Tue 09:29:43 AM 34.0542 -78.8797 40° Northeast 499 574 41,000  Level Jacksonville Center
Tue 09:32:07 AM 34.3150 -78.6242 39° Northeast 506 582 41,000  Level Washington Center
Tue 09:33:07 AM 34.4242 -78.5150 40° Northeast 506 582 41,000  Level Washington Center
Tue 09:34:08 AM 34.5369 -78.4233 34° Northeast 501 577 41,000  Level Washington Center
Tue 09:35:08 AM 34.6517 -78.3314 33° Northeast 501 577 41,000  Level Washington Center
Tue 09:36:09 AM 34.7578 -78.2464 33° Northeast 501 577 41,000  Level Washington Center
Tue 09:37:07 AM 34.8725 -78.1514 34° Northeast 501 577 41,000  Level Washington Center
Tue 09:38:07 AM 34.9894 -78.0589 33° Northeast 496 571 41,000  Level Washington Center
Tue 09:39:07 AM 35.1081 -77.9658 33° Northeast 501 577 41,000  Level Washington Center
Tue 09:40:08 AM 35.2225 -77.8700 34° Northeast 501 577 41,000  Level Washington Center
Tue 09:41:09 AM 35.3411 -77.7742 33° Northeast 501 577 41,000  Level Washington Center
Tue 09:42:09 AM 35.4578 -77.6781 34° Northeast 501 577 41,000  Level Washington Center
Tue 09:43:08 AM 35.5739 -77.5864 33° Northeast 501 577 41,000  Level Washington Center
Tue 09:44:08 AM 35.6925 -77.4897 33° Northeast 501 577 41,000  Level Washington Center
Tue 09:45:09 AM 35.8086 -77.3925 34° Northeast 501 577 41,000  Level Washington Center
Tue 09:46:07 AM 35.9247 -77.2978 33° Northeast 496 571 41,000  Level Washington Center
Tue 09:47:08 AM 36.0408 -77.2000 34° Northeast 496 571 41,000  Level Washington Center
Tue 09:48:09 AM 36.1550 -77.1047 34° Northeast 496 571 41,000  Level Washington Center
Tue 09:49:06 AM 36.2686 -77.0089 34° Northeast 496 571 41,000  Level Washington Center
Tue 09:50:07 AM 36.3867 -76.9103 34° Northeast 496 571 41,000  Level Washington Center
Tue 09:51:07 AM 36.4878 -76.8242 34° Northeast 496 571 41,000  Level Washington Center
Tue 09:52:08 AM 36.6161 -76.7175 34° Northeast 496 571 41,000  Level Washington Center
Tue 09:53:07 AM 36.7422 -76.6053 35° Northeast 496 571 41,000  Level Washington Center
Tue 09:54:08 AM 36.8597 -76.5056 34° Northeast 501 577 41,000  Level Washington Center
Tue 09:55:09 AM 36.9753 -76.4083 34° Northeast 501 577 41,000  Level Washington Center
Tue 09:56:07 AM 37.0906 -76.3078 35° Northeast 501 577 41,000  Level Washington Center
Tue 09:57:08 AM 37.2058 -76.2072 35° Northeast 496 571 41,000  Level Washington Center
Tue 09:58:08 AM 37.3253 -76.1117 32° Northeast 502 578 41,000  Level Washington Center
Tue 09:59:09 AM 37.4403 -76.0131 34° Northeast 507 583 41,000  Level Washington Center
Tue 10:00:07 AM 37.5533 -75.9139 35° Northeast 507 583 41,000  Level Washington Center
Tue 10:01:07 AM 37.6703 -75.8094 35° Northeast 507 583 41,000  Level Washington Center
Tue 10:02:08 AM 37.7872 -75.7075 35° Northeast 507 583 41,000  Level Washington Center
Tue 10:03:09 AM 37.9042 -75.6050 35° Northeast 512 589 41,000  Level Washington Center
Tue 10:04:09 AM 38.0231 -75.4994 35° Northeast 512 589 41,000  Level Washington Center
Tue 10:05:07 AM 38.1439 -75.4122 30° Northeast 512 589 41,000  Level Washington Center
Tue 10:06:08 AM 38.2708 -75.3353 25° Northeast 499 574 41,000  Level Washington Center
Tue 10:07:08 AM 38.3936 -75.2553 27° Northeast 491 565 41,000  Level Washington Center
Tue 10:08:09 AM 38.5186 -75.1750 27° Northeast 491 565 41,000 -496 Level Washington Center
Tue 10:09:09 AM 38.6433 -75.0919 27° Northeast 486 559 40,000 -1,271 Descending Washington Center
Tue 10:10:07 AM 38.7681 -75.0139 26° Northeast 491 565 38,500 -1,513 Descending Washington Center
Tue 10:11:08 AM 38.8822 -74.9436 26° Northeast 491 565 37,000 -744 Descending Washington Center
Tue 10:12:08 AM 39.0089 -74.8597 27° Northeast 496 571 37,000 -496 Level Washington Center
Tue 10:13:09 AM 39.1314 -74.7675 30° Northeast 496 571 36,000 -2,168 Descending Washington Center
Tue 10:14:07 AM 39.2431 -74.6508 39° Northeast 508 585 32,700 -3,474 Descending Washington Center
Tue 10:15:41 AM 39.4242 -74.4608 39° Northeast 520 598 27,200 -3,312 Descending New York Center
Tue 10:16:41 AM 39.5428 -74.3378 39° Northeast 525 604 24,200 -1,650 Descending New York Center
Tue 10:17:41 AM 39.6547 -74.2167 40° Northeast 530 610 23,900 -850 Descending New York Center
Tue 10:18:41 AM 39.7686 -74.0981 39° Northeast 530 610 22,500 -1,529 Descending New York Center
Tue 10:20:14 AM 39.9350 -73.9194 39° Northeast 518 596 20,000 -1,403 Descending Boston Center
Tue 10:21:15 AM 40.0475 -73.8011 39° Northeast 499 574 18,900 -1,230 Descending Boston Center
Tue 10:22:16 AM 40.1519 -73.6897 39° Northeast 483 556 17,500 -934 Descending Boston Center
Tue 10:23:17 AM 40.2528 -73.5806 40° Northeast 482 555 17,000 -246 Descending Boston Center
Tue 10:24:18 AM 40.3592 -73.4678 39° Northeast 487 560 17,000  Level Boston Center
Tue 10:25:19 AM 40.4811 -73.4147 18° North 456 525 17,000 -393 Level Boston Center
Tue 10:26:20 AM 40.6272 -73.3644 15° North 451 519 16,200 -984 Descending Boston Center
Tue 10:27:21 AM 40.7308 -73.3267 15° North 397 457 15,000 -639 Descending Boston Center
Tue 10:28:22 AM 40.8119 -73.2672 29° Northeast 351 404 14,900 -836 Descending Boston Center
Tue 10:29:23 AM 40.8664 -73.1558 57° Northeast 361 415 13,300 -1,818 Descending Boston Center
Tue 10:30:34 AM 40.9333 -73.0500 50° Northeast 320 368 10,900 -2,160 Descending New York TRACON
Tue 10:31:28 AM 41.0000 -73.0833 339° North 240 276 8,800 -2,316 Descending New York TRACON
Tue 10:32:28 AM 41.0333 -73.1667 298° West 228 262 6,500 -2,250 Descending New York TRACON
Tue 10:33:28 AM 41.0667 -73.2333 304° West 234 269 4,300 -1,316 Descending New York TRACON
Tue 10:34:22 AM 41.0833 -73.3000 288° West 227 261 4,000 -895 Descending New York TRACON
Tue 10:35:22 AM 41.0833 -73.3667 270° West 215 247 2,600 -789 Descending New York TRACON
Tue 10:36:16 AM 41.0500 -73.4333 236° Southwest 180 207 2,500 -50 Descending New York TRACON
Tue 10:37:22 AM 41.0333 -73.4833 246° West 156 180 2,500 -150 Level New York TRACON
Tue 10:38:16 AM 41.0167 -73.5333 246° West 166 191 2,200 -263 Descending New York TRACON
Tue 10:39:16 AM 41.0000 -73.6000 252° West 170 196 2,000 -150 Descending New York TRACON
Tue 10:40:16 AM 41.0000 -73.6500 270° West 163 188 1,900 -421 Descending New York TRACON
Tue 10:41:10 AM 41.0333 -73.6833 323° Northwest 149 171 1,200 -778 Descending New York TRACON

Login

Don't have an account? Register now (free) for customized features, flight alerts, and more!